sensor_id;sensor_type;location;lat;lon;timestamp;temperature;humidity
21772;DHT22;11047;47.904;8.110;2023-12-14T00:02:24;3.40;99.90
21772;DHT22;11047;47.904;8.110;2023-12-14T00:04:51;3.40;99.90
21772;DHT22;11047;47.904;8.110;2023-12-14T00:07:19;3.30;99.90
21772;DHT22;11047;47.904;8.110;2023-12-14T00:09:46;3.30;99.90
21772;DHT22;11047;47.904;8.110;2023-12-14T00:12:13;3.30;99.90
21772;DHT22;11047;47.904;8.110;2023-12-14T00:14:40;3.30;99.90
21772;DHT22;11047;47.904;8.110;2023-12-14T00:17:06;3.30;99.90
21772;DHT22;11047;47.904;8.110;2023-12-14T00:19:33;3.40;99.90
21772;DHT22;11047;47.904;8.110;2023-12-14T00:22:00;3.30;99.90
21772;DHT22;11047;47.904;8.110;2023-12-14T00:24:28;3.30;99.90
21772;DHT22;11047;47.904;8.110;2023-12-14T00:26:55;3.30;99.90
21772;DHT22;11047;47.904;8.110;2023-12-14T00:29:22;4.00;99.90
21772;DHT22;11047;47.904;8.110;2023-12-14T00:31:49;3.20;99.90
21772;DHT22;11047;47.904;8.110;2023-12-14T00:34:16;3.30;99.90
21772;DHT22;11047;47.904;8.110;2023-12-14T00:36:43;3.30;99.90
21772;DHT22;11047;47.904;8.110;2023-12-14T00:39:10;3.30;99.90
21772;DHT22;11047;47.904;8.110;2023-12-14T00:41:38;3.40;99.90
21772;DHT22;11047;47.904;8.110;2023-12-14T00:44:05;3.80;99.90
21772;DHT22;11047;47.904;8.110;2023-12-14T00:46:32;3.30;99.90
21772;DHT22;11047;47.904;8.110;2023-12-14T00:48:59;3.30;99.90
21772;DHT22;11047;47.904;8.110;2023-12-14T00:51:27;3.40;99.90
21772;DHT22;11047;47.904;8.110;2023-12-14T00:53:54;3.30;99.90
21772;DHT22;11047;47.904;8.110;2023-12-14T00:56:21;3.30;99.90
21772;DHT22;11047;47.904;8.110;2023-12-14T00:58:49;3.30;99.90
21772;DHT22;11047;47.904;8.110;2023-12-14T01:01:16;3.40;99.90
21772;DHT22;11047;47.904;8.110;2023-12-14T01:03:43;3.40;99.90
21772;DHT22;11047;47.904;8.110;2023-12-14T01:06:10;3.40;99.90
21772;DHT22;11047;47.904;8.110;2023-12-14T01:08:37;3.30;99.90
21772;DHT22;11047;47.904;8.110;2023-12-14T01:11:04;3.30;99.90
21772;DHT22;11047;47.904;8.110;2023-12-14T01:13:30;3.20;99.90
21772;DHT22;11047;47.904;8.110;2023-12-14T01:15:59;3.30;99.90
21772;DHT22;11047;47.904;8.110;2023-12-14T01:18:25;3.30;99.90
21772;DHT22;11047;47.904;8.110;2023-12-14T01:20:52;3.30;99.90
21772;DHT22;11047;47.904;8.110;2023-12-14T01:23:18;3.30;99.90
21772;DHT22;11047;47.904;8.110;2023-12-14T01:25:45;3.30;99.90
21772;DHT22;11047;47.904;8.110;2023-12-14T01:28:12;3.20;99.90
21772;DHT22;11047;47.904;8.110;2023-12-14T01:30:39;3.20;99.90
21772;DHT22;11047;47.904;8.110;2023-12-14T01:33:07;3.10;99.90
21772;DHT22;11047;47.904;8.110;2023-12-14T01:35:34;3.20;99.90
21772;DHT22;11047;47.904;8.110;2023-12-14T01:38:01;3.20;99.90
21772;DHT22;11047;47.904;8.110;2023-12-14T01:40:28;3.20;99.90
21772;DHT22;11047;47.904;8.110;2023-12-14T01:43:06;3.20;99.90
21772;DHT22;11047;47.904;8.110;2023-12-14T01:45:33;3.20;99.90
21772;DHT22;11047;47.904;8.110;2023-12-14T01:48:00;3.20;99.90
21772;DHT22;11047;47.904;8.110;2023-12-14T01:50:28;3.30;99.90
21772;DHT22;11047;47.904;8.110;2023-12-14T01:52:55;3.20;99.90
21772;DHT22;11047;47.904;8.110;2023-12-14T01:55:22;3.80;99.90
21772;DHT22;11047;47.904;8.110;2023-12-14T01:57:48;3.30;99.90
21772;DHT22;11047;47.904;8.110;2023-12-14T02:00:21;3.30;99.90
21772;DHT22;11047;47.904;8.110;2023-12-14T02:02:50;3.50;99.90
21772;DHT22;11047;47.904;8.110;2023-12-14T02:05:17;3.50;99.90
21772;DHT22;11047;47.904;8.110;2023-12-14T02:07:46;3.40;99.90
21772;DHT22;11047;47.904;8.110;2023-12-14T02:10:13;3.40;99.90
21772;DHT22;11047;47.904;8.110;2023-12-14T02:12:40;3.40;99.90
21772;DHT22;11047;47.904;8.110;2023-12-14T02:15:07;3.40;99.90
21772;DHT22;11047;47.904;8.110;2023-12-14T02:17:35;3.50;99.90
21772;DHT22;11047;47.904;8.110;2023-12-14T02:20:02;3.50;99.90
21772;DHT22;11047;47.904;8.110;2023-12-14T02:22:35;3.60;99.90
21772;DHT22;11047;47.904;8.110;2023-12-14T02:25:02;3.70;99.90
21772;DHT22;11047;47.904;8.110;2023-12-14T02:27:29;3.60;99.90
21772;DHT22;11047;47.904;8.110;2023-12-14T02:29:56;3.60;99.90
21772;DHT22;11047;47.904;8.110;2023-12-14T02:32:23;3.50;99.90
21772;DHT22;11047;47.904;8.110;2023-12-14T02:34:50;3.50;99.90
21772;DHT22;11047;47.904;8.110;2023-12-14T02:37:17;3.50;99.90
21772;DHT22;11047;47.904;8.110;2023-12-14T02:39:45;3.50;99.90
21772;DHT22;11047;47.904;8.110;2023-12-14T02:42:13;3.70;99.90
21772;DHT22;11047;47.904;8.110;2023-12-14T02:44:40;3.50;99.90
21772;DHT22;11047;47.904;8.110;2023-12-14T02:47:07;3.50;99.90
21772;DHT22;11047;47.904;8.110;2023-12-14T02:49:34;3.50;99.90
21772;DHT22;11047;47.904;8.110;2023-12-14T02:52:00;3.40;99.90
21772;DHT22;11047;47.904;8.110;2023-12-14T02:54:27;3.50;99.90
21772;DHT22;11047;47.904;8.110;2023-12-14T02:56:56;3.50;99.90
21772;DHT22;11047;47.904;8.110;2023-12-14T02:59:22;3.50;99.90
21772;DHT22;11047;47.904;8.110;2023-12-14T03:01:49;3.60;99.90
21772;DHT22;11047;47.904;8.110;2023-12-14T03:04:16;3.60;99.90
21772;DHT22;11047;47.904;8.110;2023-12-14T03:06:43;3.60;99.90
21772;DHT22;11047;47.904;8.110;2023-12-14T03:09:10;3.60;99.90
21772;DHT22;11047;47.904;8.110;2023-12-14T03:11:37;3.60;99.90
21772;DHT22;11047;47.904;8.110;2023-12-14T03:14:05;3.60;99.90
21772;DHT22;11047;47.904;8.110;2023-12-14T03:16:32;3.60;99.90
21772;DHT22;11047;47.904;8.110;2023-12-14T03:19:01;3.60;99.90
21772;DHT22;11047;47.904;8.110;2023-12-14T03:21:28;3.50;99.90
21772;DHT22;11047;47.904;8.110;2023-12-14T03:23:55;3.50;99.90
21772;DHT22;11047;47.904;8.110;2023-12-14T03:26:22;3.50;99.90
21772;DHT22;11047;47.904;8.110;2023-12-14T03:28:49;3.40;99.90
21772;DHT22;11047;47.904;8.110;2023-12-14T03:31:17;3.40;99.90
21772;DHT22;11047;47.904;8.110;2023-12-14T03:33:45;3.40;99.90
21772;DHT22;11047;47.904;8.110;2023-12-14T03:36:12;3.50;99.90
21772;DHT22;11047;47.904;8.110;2023-12-14T03:38:39;3.50;99.90
21772;DHT22;11047;47.904;8.110;2023-12-14T03:41:06;3.50;99.90
21772;DHT22;11047;47.904;8.110;2023-12-14T03:43:32;3.50;99.90
21772;DHT22;11047;47.904;8.110;2023-12-14T03:45:59;3.40;99.90
21772;DHT22;11047;47.904;8.110;2023-12-14T03:48:28;3.40;99.90
21772;DHT22;11047;47.904;8.110;2023-12-14T03:50:54;3.40;99.90
21772;DHT22;11047;47.904;8.110;2023-12-14T03:53:21;3.40;99.90
21772;DHT22;11047;47.904;8.110;2023-12-14T03:55:48;3.40;99.90
21772;DHT22;11047;47.904;8.110;2023-12-14T03:58:15;3.40;99.90
21772;DHT22;11047;47.904;8.110;2023-12-14T04:00:42;3.40;99.90
21772;DHT22;11047;47.904;8.110;2023-12-14T04:03:09;3.50;99.90
21772;DHT22;11047;47.904;8.110;2023-12-14T04:05:37;3.50;99.90
21772;DHT22;11047;47.904;8.110;2023-12-14T04:08:04;3.60;99.90
21772;DHT22;11047;47.904;8.110;2023-12-14T04:10:31;3.60;99.90
21772;DHT22;11047;47.904;8.110;2023-12-14T04:12:58;3.60;99.90
21772;DHT22;11047;47.904;8.110;2023-12-14T04:15:25;3.70;99.90
21772;DHT22;11047;47.904;8.110;2023-12-14T04:17:52;3.80;99.90
21772;DHT22;11047;47.904;8.110;2023-12-14T04:20:18;3.70;99.90
21772;DHT22;11047;47.904;8.110;2023-12-14T04:22:47;3.60;99.90
21772;DHT22;11047;47.904;8.110;2023-12-14T04:25:14;3.60;99.90
21772;DHT22;11047;47.904;8.110;2023-12-14T04:27:41;3.70;99.90
21772;DHT22;11047;47.904;8.110;2023-12-14T04:30:08;3.80;99.90
21772;DHT22;11047;47.904;8.110;2023-12-14T04:32:36;3.80;99.90
21772;DHT22;11047;47.904;8.110;2023-12-14T04:35:03;3.80;99.90
21772;DHT22;11047;47.904;8.110;2023-12-14T04:37:30;3.80;99.90
21772;DHT22;11047;47.904;8.110;2023-12-14T04:39:59;4.20;99.90
21772;DHT22;11047;47.904;8.110;2023-12-14T04:42:26;3.90;99.90
21772;DHT22;11047;47.904;8.110;2023-12-14T04:44:53;3.90;99.90
21772;DHT22;11047;47.904;8.110;2023-12-14T04:47:20;3.60;99.90
21772;DHT22;11047;47.904;8.110;2023-12-14T04:49:47;3.60;99.90
21772;DHT22;11047;47.904;8.110;2023-12-14T04:52:14;3.50;99.90
21772;DHT22;11047;47.904;8.110;2023-12-14T04:54:41;3.50;99.90
21772;DHT22;11047;47.904;8.110;2023-12-14T04:57:09;3.90;99.90
21772;DHT22;11047;47.904;8.110;2023-12-14T04:59:36;3.40;99.90
21772;DHT22;11047;47.904;8.110;2023-12-14T05:02:03;3.40;99.90
21772;DHT22;11047;47.904;8.110;2023-12-14T05:04:30;3.40;99.90
21772;DHT22;11047;47.904;8.110;2023-12-14T05:06:57;3.40;99.90
21772;DHT22;11047;47.904;8.110;2023-12-14T05:09:24;3.40;99.90
21772;DHT22;11047;47.904;8.110;2023-12-14T05:11:51;3.40;99.90
21772;DHT22;11047;47.904;8.110;2023-12-14T05:14:19;3.40;99.90
21772;DHT22;11047;47.904;8.110;2023-12-14T05:16:46;3.40;99.90
21772;DHT22;11047;47.904;8.110;2023-12-14T05:19:13;3.50;99.90
21772;DHT22;11047;47.904;8.110;2023-12-14T05:21:40;3.60;99.90
21772;DHT22;11047;47.904;8.110;2023-12-14T05:24:07;3.50;99.90
21772;DHT22;11047;47.904;8.110;2023-12-14T05:26:34;3.60;99.90
21772;DHT22;11047;47.904;8.110;2023-12-14T05:29:01;3.60;99.90
21772;DHT22;11047;47.904;8.110;2023-12-14T05:31:29;3.60;99.90
21772;DHT22;11047;47.904;8.110;2023-12-14T05:33:56;3.60;99.90
21772;DHT22;11047;47.904;8.110;2023-12-14T05:36:23;3.90;99.90
21772;DHT22;11047;47.904;8.110;2023-12-14T05:38:50;3.60;99.90
21772;DHT22;11047;47.904;8.110;2023-12-14T05:41:16;3.60;99.90
21772;DHT22;11047;47.904;8.110;2023-12-14T05:43:43;3.90;99.90
21772;DHT22;11047;47.904;8.110;2023-12-14T05:46:20;3.60;99.90
21772;DHT22;11047;47.904;8.110;2023-12-14T05:48:48;3.60;99.90
21772;DHT22;11047;47.904;8.110;2023-12-14T05:51:26;3.90;99.90
21772;DHT22;11047;47.904;8.110;2023-12-14T05:53:53;3.60;99.90
21772;DHT22;11047;47.904;8.110;2023-12-14T05:56:20;3.60;99.90
21772;DHT22;11047;47.904;8.110;2023-12-14T05:58:47;3.60;99.90
21772;DHT22;11047;47.904;8.110;2023-12-14T06:01:16;3.60;99.90
21772;DHT22;11047;47.904;8.110;2023-12-14T06:03:43;3.50;99.90
21772;DHT22;11047;47.904;8.110;2023-12-14T06:06:11;3.50;99.90
21772;DHT22;11047;47.904;8.110;2023-12-14T06:08:40;3.50;99.90
21772;DHT22;11047;47.904;8.110;2023-12-14T06:11:07;3.50;99.90
21772;DHT22;11047;47.904;8.110;2023-12-14T06:13:34;3.70;99.90
21772;DHT22;11047;47.904;8.110;2023-12-14T06:16:01;3.60;99.90
21772;DHT22;11047;47.904;8.110;2023-12-14T06:18:28;3.90;99.90
21772;DHT22;11047;47.904;8.110;2023-12-14T06:20:55;3.70;99.90
21772;DHT22;11047;47.904;8.110;2023-12-14T06:23:23;3.70;99.90
21772;DHT22;11047;47.904;8.110;2023-12-14T06:25:50;3.60;99.90
21772;DHT22;11047;47.904;8.110;2023-12-14T06:28:18;3.70;99.90
21772;DHT22;11047;47.904;8.110;2023-12-14T06:30:45;3.70;99.90
21772;DHT22;11047;47.904;8.110;2023-12-14T06:33:11;3.70;99.90
21772;DHT22;11047;47.904;8.110;2023-12-14T06:35:38;3.70;99.90
21772;DHT22;11047;47.904;8.110;2023-12-14T06:38:05;3.70;99.90
21772;DHT22;11047;47.904;8.110;2023-12-14T06:40:33;3.70;99.90
21772;DHT22;11047;47.904;8.110;2023-12-14T06:43:03;3.70;99.90
21772;DHT22;11047;47.904;8.110;2023-12-14T06:45:30;3.70;99.90
21772;DHT22;11047;47.904;8.110;2023-12-14T06:47:57;3.60;99.90
21772;DHT22;11047;47.904;8.110;2023-12-14T06:50:24;3.60;99.90
21772;DHT22;11047;47.904;8.110;2023-12-14T06:52:51;3.70;99.90
21772;DHT22;11047;47.904;8.110;2023-12-14T06:55:18;3.90;99.90
21772;DHT22;11047;47.904;8.110;2023-12-14T06:57:46;3.80;99.90
21772;DHT22;11047;47.904;8.110;2023-12-14T07:00:14;3.80;99.90
21772;DHT22;11047;47.904;8.110;2023-12-14T07:02:41;3.70;99.90
21772;DHT22;11047;47.904;8.110;2023-12-14T07:05:09;3.80;99.90
21772;DHT22;11047;47.904;8.110;2023-12-14T07:07:35;3.80;99.90
21772;DHT22;11047;47.904;8.110;2023-12-14T07:10:03;3.70;99.90
21772;DHT22;11047;47.904;8.110;2023-12-14T07:12:30;3.70;99.90
21772;DHT22;11047;47.904;8.110;2023-12-14T07:14:58;3.70;99.90
21772;DHT22;11047;47.904;8.110;2023-12-14T07:17:25;3.70;99.90
21772;DHT22;11047;47.904;8.110;2023-12-14T07:19:52;3.60;99.90
21772;DHT22;11047;47.904;8.110;2023-12-14T07:22:19;3.60;99.90
21772;DHT22;11047;47.904;8.110;2023-12-14T07:24:46;3.60;99.90
21772;DHT22;11047;47.904;8.110;2023-12-14T07:27:13;3.60;99.90
21772;DHT22;11047;47.904;8.110;2023-12-14T07:29:40;3.50;99.90
21772;DHT22;11047;47.904;8.110;2023-12-14T07:32:08;3.60;99.90
21772;DHT22;11047;47.904;8.110;2023-12-14T07:34:35;3.60;99.90
21772;DHT22;11047;47.904;8.110;2023-12-14T07:37:02;4.00;99.90
21772;DHT22;11047;47.904;8.110;2023-12-14T07:39:31;3.70;99.90
21772;DHT22;11047;47.904;8.110;2023-12-14T07:41:58;3.60;99.90
21772;DHT22;11047;47.904;8.110;2023-12-14T07:44:25;4.00;99.90
21772;DHT22;11047;47.904;8.110;2023-12-14T07:46:55;3.80;99.90
21772;DHT22;11047;47.904;8.110;2023-12-14T07:49:23;4.00;99.90
21772;DHT22;11047;47.904;8.110;2023-12-14T07:51:51;3.80;99.90
21772;DHT22;11047;47.904;8.110;2023-12-14T07:54:18;4.00;99.90
21772;DHT22;11047;47.904;8.110;2023-12-14T07:56:45;3.80;99.90
21772;DHT22;11047;47.904;8.110;2023-12-14T07:59:11;3.70;99.90
21772;DHT22;11047;47.904;8.110;2023-12-14T08:01:38;3.80;99.90
21772;DHT22;11047;47.904;8.110;2023-12-14T08:04:05;3.80;99.90
21772;DHT22;11047;47.904;8.110;2023-12-14T08:06:33;3.80;99.90
21772;DHT22;11047;47.904;8.110;2023-12-14T08:09:00;3.90;99.90
21772;DHT22;11047;47.904;8.110;2023-12-14T08:11:27;3.90;99.90
21772;DHT22;11047;47.904;8.110;2023-12-14T08:13:54;4.00;99.90
21772;DHT22;11047;47.904;8.110;2023-12-14T08:16:21;3.90;99.90
21772;DHT22;11047;47.904;8.110;2023-12-14T08:18:48;3.90;99.90
21772;DHT22;11047;47.904;8.110;2023-12-14T08:21:15;3.80;99.90
21772;DHT22;11047;47.904;8.110;2023-12-14T08:23:43;3.80;99.90
21772;DHT22;11047;47.904;8.110;2023-12-14T08:26:10;4.00;99.90
21772;DHT22;11047;47.904;8.110;2023-12-14T08:28:38;3.80;99.90
21772;DHT22;11047;47.904;8.110;2023-12-14T08:31:05;3.80;99.90
21772;DHT22;11047;47.904;8.110;2023-12-14T08:33:33;3.90;99.90
21772;DHT22;11047;47.904;8.110;2023-12-14T08:36:00;3.90;99.90
21772;DHT22;11047;47.904;8.110;2023-12-14T08:38:27;3.90;99.90
21772;DHT22;11047;47.904;8.110;2023-12-14T08:40:55;3.90;99.90
21772;DHT22;11047;47.904;8.110;2023-12-14T08:43:22;4.00;99.90
21772;DHT22;11047;47.904;8.110;2023-12-14T08:45:49;3.90;99.90
21772;DHT22;11047;47.904;8.110;2023-12-14T08:48:16;3.90;99.90
21772;DHT22;11047;47.904;8.110;2023-12-14T08:50:43;4.60;99.90
21772;DHT22;11047;47.904;8.110;2023-12-14T08:53:10;4.00;99.90
21772;DHT22;11047;47.904;8.110;2023-12-14T08:55:37;3.90;99.90
21772;DHT22;11047;47.904;8.110;2023-12-14T08:58:05;4.00;99.90
21772;DHT22;11047;47.904;8.110;2023-12-14T09:00:32;3.90;99.90
21772;DHT22;11047;47.904;8.110;2023-12-14T09:02:59;4.10;99.90
21772;DHT22;11047;47.904;8.110;2023-12-14T09:05:26;4.20;99.90
21772;DHT22;11047;47.904;8.110;2023-12-14T09:07:52;4.20;99.90
21772;DHT22;11047;47.904;8.110;2023-12-14T09:10:21;4.20;99.90
21772;DHT22;11047;47.904;8.110;2023-12-14T09:12:48;4.40;99.90
21772;DHT22;11047;47.904;8.110;2023-12-14T09:15:17;4.40;99.90
21772;DHT22;11047;47.904;8.110;2023-12-14T09:17:43;4.50;99.90
21772;DHT22;11047;47.904;8.110;2023-12-14T09:20:11;4.50;99.90
21772;DHT22;11047;47.904;8.110;2023-12-14T09:22:38;4.50;99.90
21772;DHT22;11047;47.904;8.110;2023-12-14T09:25:06;4.40;99.90
21772;DHT22;11047;47.904;8.110;2023-12-14T09:27:34;4.30;99.90
21772;DHT22;11047;47.904;8.110;2023-12-14T09:30:02;4.50;99.90
21772;DHT22;11047;47.904;8.110;2023-12-14T09:32:30;4.30;99.90
21772;DHT22;11047;47.904;8.110;2023-12-14T09:34:58;4.40;99.90
21772;DHT22;11047;47.904;8.110;2023-12-14T09:37:24;4.40;99.90
21772;DHT22;11047;47.904;8.110;2023-12-14T09:39:51;4.50;99.90
21772;DHT22;11047;47.904;8.110;2023-12-14T09:42:19;4.50;99.90
21772;DHT22;11047;47.904;8.110;2023-12-14T09:44:48;4.50;99.90
21772;DHT22;11047;47.904;8.110;2023-12-14T09:47:15;4.60;99.90
21772;DHT22;11047;47.904;8.110;2023-12-14T09:49:43;4.60;99.90
21772;DHT22;11047;47.904;8.110;2023-12-14T09:52:11;4.50;99.90
21772;DHT22;11047;47.904;8.110;2023-12-14T09:54:39;4.60;99.90
21772;DHT22;11047;47.904;8.110;2023-12-14T09:57:06;4.80;99.90
21772;DHT22;11047;47.904;8.110;2023-12-14T09:59:33;4.50;99.90
21772;DHT22;11047;47.904;8.110;2023-12-14T10:02:09;4.70;99.90
21772;DHT22;11047;47.904;8.110;2023-12-14T10:04:37;4.70;99.90
21772;DHT22;11047;47.904;8.110;2023-12-14T10:07:05;4.70;99.90
21772;DHT22;11047;47.904;8.110;2023-12-14T10:09:33;4.70;99.90
21772;DHT22;11047;47.904;8.110;2023-12-14T10:12:05;4.70;99.90
21772;DHT22;11047;47.904;8.110;2023-12-14T10:14:32;4.70;99.90
21772;DHT22;11047;47.904;8.110;2023-12-14T10:17:14;4.70;99.90
21772;DHT22;11047;47.904;8.110;2023-12-14T10:19:42;4.70;99.90
21772;DHT22;11047;47.904;8.110;2023-12-14T10:22:11;4.70;99.90
21772;DHT22;11047;47.904;8.110;2023-12-14T10:24:38;4.80;99.90
21772;DHT22;11047;47.904;8.110;2023-12-14T10:27:06;4.80;99.90
21772;DHT22;11047;47.904;8.110;2023-12-14T10:29:33;5.00;99.90
21772;DHT22;11047;47.904;8.110;2023-12-14T10:32:03;5.10;99.90
21772;DHT22;11047;47.904;8.110;2023-12-14T10:34:32;5.30;99.90
21772;DHT22;11047;47.904;8.110;2023-12-14T10:36:59;5.60;99.90
21772;DHT22;11047;47.904;8.110;2023-12-14T10:39:29;5.70;99.90
21772;DHT22;11047;47.904;8.110;2023-12-14T10:41:57;5.80;99.90
21772;DHT22;11047;47.904;8.110;2023-12-14T10:44:26;6.00;99.90
21772;DHT22;11047;47.904;8.110;2023-12-14T10:46:55;6.00;99.90
21772;DHT22;11047;47.904;8.110;2023-12-14T10:49:23;6.00;99.90
21772;DHT22;11047;47.904;8.110;2023-12-14T10:51:52;5.70;99.90
21772;DHT22;11047;47.904;8.110;2023-12-14T10:54:20;5.50;99.90
21772;DHT22;11047;47.904;8.110;2023-12-14T10:56:49;5.40;99.90
21772;DHT22;11047;47.904;8.110;2023-12-14T10:59:16;5.30;99.90
21772;DHT22;11047;47.904;8.110;2023-12-14T11:01:43;5.20;99.90
21772;DHT22;11047;47.904;8.110;2023-12-14T11:04:10;5.10;99.90
21772;DHT22;11047;47.904;8.110;2023-12-14T11:06:40;5.00;99.90
21772;DHT22;11047;47.904;8.110;2023-12-14T11:09:12;5.30;99.90
21772;DHT22;11047;47.904;8.110;2023-12-14T11:11:41;5.30;99.90
21772;DHT22;11047;47.904;8.110;2023-12-14T11:14:12;5.20;99.90
21772;DHT22;11047;47.904;8.110;2023-12-14T11:16:39;5.30;99.90
21772;DHT22;11047;47.904;8.110;2023-12-14T11:19:25;5.30;99.90
21772;DHT22;11047;47.904;8.110;2023-12-14T11:22:14;5.50;99.90
21772;DHT22;11047;47.904;8.110;2023-12-14T11:24:53;5.40;99.90
21772;DHT22;11047;47.904;8.110;2023-12-14T11:27:30;5.10;99.90
21772;DHT22;11047;47.904;8.110;2023-12-14T11:29:58;5.00;99.90
21772;DHT22;11047;47.904;8.110;2023-12-14T11:32:26;5.20;99.90
21772;DHT22;11047;47.904;8.110;2023-12-14T11:34:55;4.80;99.90
21772;DHT22;11047;47.904;8.110;2023-12-14T11:37:22;4.80;99.90
21772;DHT22;11047;47.904;8.110;2023-12-14T11:39:50;4.80;99.90
21772;DHT22;11047;47.904;8.110;2023-12-14T11:42:19;4.90;99.90
21772;DHT22;11047;47.904;8.110;2023-12-14T11:44:45;5.00;99.90
21772;DHT22;11047;47.904;8.110;2023-12-14T11:47:14;5.20;99.90
21772;DHT22;11047;47.904;8.110;2023-12-14T11:49:41;4.90;99.90
21772;DHT22;11047;47.904;8.110;2023-12-14T11:52:08;4.90;99.90
21772;DHT22;11047;47.904;8.110;2023-12-14T11:54:37;5.00;99.90
21772;DHT22;11047;47.904;8.110;2023-12-14T11:57:04;4.90;99.90
21772;DHT22;11047;47.904;8.110;2023-12-14T11:59:35;4.90;99.90
21772;DHT22;11047;47.904;8.110;2023-12-14T12:02:02;5.00;99.90
21772;DHT22;11047;47.904;8.110;2023-12-14T12:04:30;4.90;99.90
21772;DHT22;11047;47.904;8.110;2023-12-14T12:07:01;4.90;99.90
21772;DHT22;11047;47.904;8.110;2023-12-14T12:09:34;4.70;99.90
21772;DHT22;11047;47.904;8.110;2023-12-14T12:12:00;4.60;99.90
21772;DHT22;11047;47.904;8.110;2023-12-14T12:14:28;4.70;99.90
21772;DHT22;11047;47.904;8.110;2023-12-14T12:16:55;4.90;99.90
21772;DHT22;11047;47.904;8.110;2023-12-14T12:19:22;4.90;99.90
21772;DHT22;11047;47.904;8.110;2023-12-14T12:21:50;4.80;99.90
21772;DHT22;11047;47.904;8.110;2023-12-14T12:24:17;4.70;99.90
21772;DHT22;11047;47.904;8.110;2023-12-14T12:26:44;4.70;99.90
21772;DHT22;11047;47.904;8.110;2023-12-14T12:29:11;4.80;99.90
21772;DHT22;11047;47.904;8.110;2023-12-14T12:31:38;4.70;99.90
21772;DHT22;11047;47.904;8.110;2023-12-14T12:34:05;4.60;99.90
21772;DHT22;11047;47.904;8.110;2023-12-14T12:36:32;4.80;99.90
21772;DHT22;11047;47.904;8.110;2023-12-14T12:39:01;4.50;99.90
21772;DHT22;11047;47.904;8.110;2023-12-14T12:41:28;4.40;99.90
21772;DHT22;11047;47.904;8.110;2023-12-14T12:43:55;4.90;99.90
21772;DHT22;11047;47.904;8.110;2023-12-14T12:46:23;4.50;99.90
21772;DHT22;11047;47.904;8.110;2023-12-14T12:48:50;4.60;99.90
21772;DHT22;11047;47.904;8.110;2023-12-14T12:51:17;4.50;99.90
21772;DHT22;11047;47.904;8.110;2023-12-14T12:53:44;4.40;99.90
21772;DHT22;11047;47.904;8.110;2023-12-14T12:56:12;4.50;99.90
21772;DHT22;11047;47.904;8.110;2023-12-14T12:58:39;5.50;99.90
21772;DHT22;11047;47.904;8.110;2023-12-14T13:01:06;4.60;99.90
21772;DHT22;11047;47.904;8.110;2023-12-14T13:03:33;4.50;99.90
21772;DHT22;11047;47.904;8.110;2023-12-14T13:06:00;5.20;99.90
21772;DHT22;11047;47.904;8.110;2023-12-14T13:08:27;4.50;99.90
21772;DHT22;11047;47.904;8.110;2023-12-14T13:10:54;4.30;99.90
21772;DHT22;11047;47.904;8.110;2023-12-14T13:13:22;4.30;99.90
21772;DHT22;11047;47.904;8.110;2023-12-14T13:15:49;4.30;99.90
21772;DHT22;11047;47.904;8.110;2023-12-14T13:18:16;4.40;99.90
21772;DHT22;11047;47.904;8.110;2023-12-14T13:20:43;4.40;99.90
21772;DHT22;11047;47.904;8.110;2023-12-14T13:23:09;4.40;99.90
21772;DHT22;11047;47.904;8.110;2023-12-14T13:25:36;4.40;99.90
21772;DHT22;11047;47.904;8.110;2023-12-14T13:28:03;4.40;99.90
21772;DHT22;11047;47.904;8.110;2023-12-14T13:30:32;4.40;99.90
21772;DHT22;11047;47.904;8.110;2023-12-14T13:32:59;4.40;99.90
21772;DHT22;11047;47.904;8.110;2023-12-14T13:35:26;4.40;99.90
21772;DHT22;11047;47.904;8.110;2023-12-14T13:37:53;4.40;99.90
21772;DHT22;11047;47.904;8.110;2023-12-14T13:40:20;4.50;99.90
21772;DHT22;11047;47.904;8.110;2023-12-14T13:42:47;5.40;99.90
21772;DHT22;11047;47.904;8.110;2023-12-14T13:45:14;5.30;99.90
21772;DHT22;11047;47.904;8.110;2023-12-14T13:47:42;4.40;99.90
21772;DHT22;11047;47.904;8.110;2023-12-14T13:50:09;4.40;99.90
21772;DHT22;11047;47.904;8.110;2023-12-14T13:52:36;4.30;99.90
21772;DHT22;11047;47.904;8.110;2023-12-14T13:55:04;4.30;99.90
21772;DHT22;11047;47.904;8.110;2023-12-14T13:57:31;4.40;99.90
21772;DHT22;11047;47.904;8.110;2023-12-14T13:59:58;4.30;99.90
21772;DHT22;11047;47.904;8.110;2023-12-14T14:02:25;4.40;99.90
21772;DHT22;11047;47.904;8.110;2023-12-14T14:04:55;4.50;99.90
21772;DHT22;11047;47.904;8.110;2023-12-14T14:07:22;4.50;99.90
21772;DHT22;11047;47.904;8.110;2023-12-14T14:09:49;4.50;99.90
21772;DHT22;11047;47.904;8.110;2023-12-14T14:12:16;5.10;99.90
21772;DHT22;11047;47.904;8.110;2023-12-14T14:14:43;4.80;99.90
21772;DHT22;11047;47.904;8.110;2023-12-14T14:17:10;5.60;99.90
21772;DHT22;11047;47.904;8.110;2023-12-14T14:19:37;5.30;99.90
21772;DHT22;11047;47.904;8.110;2023-12-14T14:22:06;5.70;99.90
21772;DHT22;11047;47.904;8.110;2023-12-14T14:24:33;5.90;99.90
21772;DHT22;11047;47.904;8.110;2023-12-14T14:27:00;4.80;99.90
21772;DHT22;11047;47.904;8.110;2023-12-14T14:29:27;5.50;99.90
21772;DHT22;11047;47.904;8.110;2023-12-14T14:31:54;4.70;99.90
21772;DHT22;11047;47.904;8.110;2023-12-14T14:34:21;4.60;99.90
21772;DHT22;11047;47.904;8.110;2023-12-14T14:36:49;4.60;99.90
21772;DHT22;11047;47.904;8.110;2023-12-14T14:39:17;5.40;99.90
21772;DHT22;11047;47.904;8.110;2023-12-14T14:41:45;5.30;99.90
21772;DHT22;11047;47.904;8.110;2023-12-14T14:44:12;4.50;99.90
21772;DHT22;11047;47.904;8.110;2023-12-14T14:46:57;4.50;99.90
21772;DHT22;11047;47.904;8.110;2023-12-14T14:49:24;4.50;99.90
21772;DHT22;11047;47.904;8.110;2023-12-14T14:51:51;4.50;99.90
21772;DHT22;11047;47.904;8.110;2023-12-14T14:54:26;4.80;99.90
21772;DHT22;11047;47.904;8.110;2023-12-14T14:56:53;5.20;99.90
21772;DHT22;11047;47.904;8.110;2023-12-14T14:59:20;4.90;99.90
21772;DHT22;11047;47.904;8.110;2023-12-14T15:01:48;4.40;99.90
21772;DHT22;11047;47.904;8.110;2023-12-14T15:04:16;4.40;99.90
21772;DHT22;11047;47.904;8.110;2023-12-14T15:06:43;4.30;99.90
21772;DHT22;11047;47.904;8.110;2023-12-14T15:09:10;4.40;99.90
21772;DHT22;11047;47.904;8.110;2023-12-14T15:11:39;4.80;99.90
21772;DHT22;11047;47.904;8.110;2023-12-14T15:14:07;4.70;99.90
21772;DHT22;11047;47.904;8.110;2023-12-14T15:16:34;4.30;99.90
21772;DHT22;11047;47.904;8.110;2023-12-14T15:19:01;4.30;99.90
21772;DHT22;11047;47.904;8.110;2023-12-14T15:21:28;4.70;99.90
21772;DHT22;11047;47.904;8.110;2023-12-14T15:23:55;4.50;99.90
21772;DHT22;11047;47.904;8.110;2023-12-14T15:26:22;5.20;99.90
21772;DHT22;11047;47.904;8.110;2023-12-14T15:28:51;4.50;99.90
21772;DHT22;11047;47.904;8.110;2023-12-14T15:31:18;5.20;99.90
21772;DHT22;11047;47.904;8.110;2023-12-14T15:33:45;4.30;99.90
21772;DHT22;11047;47.904;8.110;2023-12-14T15:36:12;5.10;99.90
21772;DHT22;11047;47.904;8.110;2023-12-14T15:38:39;4.20;99.90
21772;DHT22;11047;47.904;8.110;2023-12-14T15:41:11;4.20;99.90
21772;DHT22;11047;47.904;8.110;2023-12-14T15:43:38;4.20;99.90
21772;DHT22;11047;47.904;8.110;2023-12-14T15:46:06;4.50;99.90
21772;DHT22;11047;47.904;8.110;2023-12-14T15:48:33;4.30;99.90